Time;durP1;ratioP1;P1;durP2;ratioP2;P2;SDS_P1;SDS_P2;PMS_P1;PMS_P2;Temp;Humidity;BMP_temperature;BMP_pressure;BME280_temperature;BME280_humidity;BME280_pressure;Samples;Min_cycle;Max_cycle;Signal;HPM_P1;HPM_P2
2023/04/02 00:05:54;;;;;;;2.30;2.20;;;;;;;6.81;100.00;97546.63;15312149;19;20019;-87
2023/04/02 00:11:39;;;;;;;3.60;1.73;;;;;;;6.63;100.00;97566.25;15312429;19;20025;-86
2023/04/02 00:17:10;;;;;;;2.50;2.30;;;;;;;6.57;100.00;97574.91;15312537;19;20014;-86
2023/04/02 00:22:41;;;;;;;3.00;2.80;;;;;;;6.28;100.00;97583.22;15272399;19;20086;-47
2023/04/02 00:28:06;;;;;;;2.67;2.27;;;;;;;6.16;100.00;97593.31;15277810;19;20355;-44
2023/04/02 00:33:36;;;;;;;3.97;3.40;;;;;;;5.98;100.00;97603.97;15278011;19;20025;-50
2023/04/02 00:39:10;;;;;;;3.05;2.80;;;;;;;5.89;100.00;97604.88;15282127;19;20018;-47
2023/04/02 00:44:41;;;;;;;2.28;2.08;;;;;;;5.75;100.00;97630.31;15272709;19;20025;-44
2023/04/02 00:50:15;;;;;;;2.67;2.47;;;;;;;5.72;100.00;97647.47;15278979;19;20039;-45
2023/04/02 00:55:43;;;;;;;2.03;1.92;;;;;;;5.57;100.00;97655.16;15277977;19;20025;-50
2023/04/02 01:01:08;;;;;;;1.40;1.30;;;;;;;5.50;100.00;97648.72;15278873;19;20022;-45
2023/04/02 01:06:39;;;;;;;1.27;1.20;;;;;;;5.43;100.00;97644.94;15274189;19;20018;-44
2023/04/02 01:12:37;;;;;;;1.30;1.20;;;;;;;5.32;100.00;97646.81;15272896;19;20018;-48
2023/04/02 01:18:34;;;;;;;1.25;1.15;;;;;;;5.30;100.00;97680.00;15279893;19;20010;-45
2023/04/02 01:24:12;;;;;;;1.33;1.30;;;;;;;5.28;100.00;97679.31;15273972;19;20034;-44
2023/04/02 01:29:44;;;;;;;1.48;1.38;;;;;;;5.15;100.00;97685.81;15277654;19;20009;-45
2023/04/02 01:35:09;;;;;;;1.10;1.10;;;;;;;5.12;100.00;97682.59;15272651;19;20014;-44
2023/04/02 01:40:39;;;;;;;0.80;0.80;;;;;;;4.98;100.00;97702.59;15273505;19;20019;-50
2023/04/02 01:46:12;;;;;;;0.70;0.70;;;;;;;4.97;100.00;97716.94;15243678;19;20404;-46
2023/04/02 01:51:41;;;;;;;0.85;0.80;;;;;;;4.99;100.00;97720.31;15273702;19;20480;-44
2023/04/02 01:57:07;;;;;;;0.90;0.90;;;;;;;4.84;100.00;97723.41;15272461;19;20377;-47
2023/04/02 02:02:35;;;;;;;1.00;1.00;;;;;;;4.82;100.00;97736.03;15275792;19;20033;-48
2023/04/02 02:08:00;;;;;;;1.10;1.00;;;;;;;4.74;100.00;97750.09;15272680;19;20031;-43
2023/04/02 02:13:25;;;;;;;0.93;0.93;;;;;;;4.71;100.00;97762.88;15271350;19;20030;-47
2023/04/02 02:18:54;;;;;;;1.33;1.23;;;;;;;4.68;100.00;97779.16;15268190;19;20010;-44
2023/04/02 02:24:22;;;;;;;1.50;1.40;;;;;;;4.66;100.00;97784.63;15271353;19;20018;-46
2023/04/02 02:29:50;;;;;;;1.40;1.30;;;;;;;4.51;100.00;97786.88;15274081;19;20117;-44
2023/04/02 02:35:21;;;;;;;1.60;1.50;;;;;;;4.46;100.00;97802.44;15270666;19;20094;-47
2023/04/02 02:40:53;;;;;;;1.50;1.40;;;;;;;4.50;100.00;97822.53;15270907;19;20046;-43
2023/04/02 02:46:25;;;;;;;1.17;1.15;;;;;;;4.32;100.00;97836.50;15272418;19;20022;-44
2023/04/02 02:51:58;;;;;;;0.98;0.98;;;;;;;4.29;100.00;97841.28;15268503;19;20022;-43
2023/04/02 02:57:34;;;;;;;1.58;1.30;;;;;;;4.14;100.00;97849.66;15271364;19;20014;-45
2023/04/02 03:03:03;;;;;;;1.40;1.30;;;;;;;4.13;100.00;97853.28;15268348;19;20026;-45
2023/04/02 03:08:39;;;;;;;1.70;1.60;;;;;;;4.14;100.00;97865.66;15270715;19;20022;-44
2023/04/02 03:14:18;;;;;;;1.67;1.58;;;;;;;4.01;100.00;97878.34;15267219;19;20043;-44
2023/04/02 03:19:48;;;;;;;2.03;1.63;;;;;;;3.83;100.00;97894.97;15266244;19;20014;-44
2023/04/02 03:25:30;;;;;;;1.80;1.60;;;;;;;3.72;100.00;97895.03;15264363;19;20011;-44
2023/04/02 03:30:59;;;;;;;1.70;1.60;;;;;;;3.64;100.00;97903.69;15276244;19;20022;-47
2023/04/02 03:36:30;;;;;;;1.95;1.80;;;;;;;3.69;100.00;97925.47;15291521;19;20396;-44
2023/04/02 03:42:04;;;;;;;2.65;2.00;;;;;;;3.65;100.00;97932.00;15289223;19;20054;-45
2023/04/02 03:47:37;;;;;;;2.50;2.10;;;;;;;3.63;100.00;97947.28;15291565;19;20018;-45
2023/04/02 03:53:04;;;;;;;1.98;1.75;;;;;;;3.60;100.00;97957.34;15286104;19;20007;-43
2023/04/02 03:58:30;;;;;;;2.40;2.20;;;;;;;3.59;100.00;97972.47;15286063;19;20014;-45
2023/04/02 04:03:58;;;;;;;2.13;1.88;;;;;;;3.40;100.00;97983.84;15286610;19;20053;-45
2023/04/02 04:09:28;;;;;;;1.80;1.70;;;;;;;3.36;100.00;97998.34;15288032;19;20025;-44
2023/04/02 04:15:02;;;;;;;1.60;1.50;;;;;;;3.34;100.00;98016.28;15292965;19;20043;-45
2023/04/02 04:20:32;;;;;;;1.92;1.70;;;;;;;3.25;100.00;98033.84;15284851;19;20477;-48
2023/04/02 04:26:08;;;;;;;1.70;1.60;;;;;;;3.23;100.00;98046.44;15279692;19;20017;-47
2023/04/02 04:31:45;;;;;;;1.92;1.80;;;;;;;3.18;100.00;98051.28;15285913;19;20026;-47
2023/04/02 04:37:20;;;;;;;2.30;2.00;;;;;;;3.17;100.00;98070.88;15286799;19;20021;-49
2023/04/02 04:42:52;;;;;;;2.45;2.25;;;;;;;3.12;100.00;98083.72;15282682;19;20371;-49
2023/04/02 04:48:27;;;;;;;2.78;2.40;;;;;;;3.08;100.00;98105.25;15287711;19;20014;-44
2023/04/02 04:53:56;;;;;;;2.83;2.45;;;;;;;3.02;100.00;98116.38;15279205;19;20265;-44
2023/04/02 04:59:26;;;;;;;2.58;2.38;;;;;;;2.96;100.00;98119.53;15283221;19;20026;-46
2023/04/02 05:04:55;;;;;;;2.33;2.13;;;;;;;2.89;100.00;98142.25;15285014;19;20493;-46
2023/04/02 05:10:27;;;;;;;3.03;2.63;;;;;;;2.96;100.00;98143.47;15281521;19;20018;-46
2023/04/02 05:16:03;;;;;;;4.15;2.30;;;;;;;2.80;100.00;98151.81;15286071;19;20011;-45
2023/04/02 05:21:35;;;;;;;2.50;2.30;;;;;;;2.75;100.00;98175.25;15284646;19;20018;-44
2023/04/02 05:27:04;;;;;;;3.85;2.22;;;;;;;2.72;100.00;98187.00;15280392;19;20354;-45
2023/04/02 05:32:34;;;;;;;1.83;1.73;;;;;;;2.68;100.00;98192.66;15273935;19;20021;-46
2023/04/02 05:38:06;;;;;;;2.45;2.25;;;;;;;2.64;100.00;98202.69;15276926;19;20038;-46
2023/04/02 05:43:33;;;;;;;2.40;2.20;;;;;;;2.59;100.00;98215.47;15274697;19;20025;-47
2023/04/02 05:49:00;;;;;;;2.35;2.10;;;;;;;2.55;100.00;98217.53;15276380;19;20006;-45
2023/04/02 05:54:35;;;;;;;2.10;1.90;;;;;;;2.45;100.00;98213.88;15278095;19;20010;-44
2023/04/02 06:00:06;;;;;;;2.47;2.13;;;;;;;2.44;100.00;98225.47;15280264;19;20022;-47
2023/04/02 06:05:37;;;;;;;2.65;2.35;;;;;;;2.43;100.00;98243.22;15271769;19;20019;-47
2023/04/02 06:11:10;;;;;;;2.72;2.30;;;;;;;2.40;100.00;98235.47;15277471;19;20022;-45
2023/04/02 06:16:38;;;;;;;3.00;2.15;;;;;;;2.43;100.00;98261.81;15278890;19;20033;-45
2023/04/02 06:22:13;;;;;;;2.38;2.03;;;;;;;2.46;100.00;98266.91;15279510;19;20035;-47
2023/04/02 06:27:44;;;;;;;2.45;2.00;;;;;;;2.49;100.00;98291.59;15282839;19;20086;-47
2023/04/02 06:33:12;;;;;;;3.03;2.20;;;;;;;2.49;100.00;98300.41;15280124;19;20042;-46
2023/04/02 06:38:40;;;;;;;1.38;1.27;;;;;;;2.46;100.00;98313.94;15273034;19;20479;-47
2023/04/02 06:44:14;;;;;;;1.80;1.60;;;;;;;2.52;100.00;98334.75;15279263;19;20054;-46
2023/04/02 06:50:16;;;;;;;2.03;1.70;;;;;;;2.49;100.00;98339.47;15275966;19;20024;-45
2023/04/02 06:55:47;;;;;;;1.85;1.52;;;;;;;2.42;100.00;98355.84;15278143;19;20011;-46
2023/04/02 07:01:24;;;;;;;2.30;1.90;;;;;;;2.49;100.00;98374.88;15269660;19;20018;-46
2023/04/02 07:06:50;;;;;;;1.55;1.30;;;;;;;2.33;100.00;98388.41;15271195;19;20074;-46
2023/04/02 07:12:20;;;;;;;1.60;1.38;;;;;;;2.27;100.00;98381.72;15289685;19;20042;-54
2023/04/02 07:17:48;;;;;;;1.83;1.70;;;;;;;2.33;100.00;98396.41;15288793;19;20022;-49
2023/04/02 07:23:13;;;;;;;1.73;1.63;;;;;;;2.28;100.00;98402.03;15285370;19;20408;-46
2023/04/02 07:28:38;;;;;;;1.95;1.75;;;;;;;2.28;100.00;98422.47;15283203;19;20088;-46
2023/04/02 07:34:06;;;;;;;2.35;2.00;;;;;;;2.26;100.00;98421.72;15288509;19;20038;-46
2023/04/02 07:39:32;;;;;;;2.08;1.75;;;;;;;2.20;100.00;98435.44;15283023;19;20014;-46
2023/04/02 07:44:57;;;;;;;1.98;1.50;;;;;;;2.29;100.00;98440.13;15279130;19;20085;-45
2023/04/02 07:50:27;;;;;;;1.98;1.60;;;;;;;2.30;100.00;98455.09;15279387;19;20523;-46
2023/04/02 07:55:51;;;;;;;1.80;1.70;;;;;;;2.32;100.00;98463.81;15286010;19;20463;-48
2023/04/02 08:01:22;;;;;;;2.78;1.90;;;;;;;2.31;100.00;98470.97;15279404;19;20471;-48
2023/04/02 08:06:51;;;;;;;2.28;1.80;;;;;;;2.20;100.00;98493.91;15279735;19;20014;-46
2023/04/02 08:12:16;;;;;;;2.35;1.95;;;;;;;2.27;100.00;98519.97;15278113;19;20121;-47
2023/04/02 08:17:41;;;;;;;3.08;2.10;;;;;;;2.20;100.00;98518.69;15280880;19;20015;-49
2023/04/02 08:23:21;;;;;;;1.98;1.77;;;;;;;2.24;100.00;98522.84;15278426;19;20015;-49
2023/04/02 08:28:47;;;;;;;3.10;2.20;;;;;;;2.29;100.00;98525.19;15281750;19;20010;-45
2023/04/02 08:34:12;;;;;;;4.40;2.05;;;;;;;2.23;100.00;98536.25;15279375;19;20399;-49
2023/04/02 08:39:40;;;;;;;4.05;2.00;;;;;;;2.14;100.00;98537.72;15277520;19;20023;-45
2023/04/02 08:45:16;;;;;;;2.88;2.00;;;;;;;2.00;100.00;98541.31;15269203;19;20015;-47
2023/04/02 08:50:57;;;;;;;2.60;1.70;;;;;;;2.02;100.00;98549.19;15274855;19;20010;-50
2023/04/02 08:56:29;;;;;;;2.10;1.50;;;;;;;2.00;100.00;98559.94;15275601;19;20014;-48
2023/04/02 09:02:00;;;;;;;1.73;1.40;;;;;;;2.06;100.00;98566.63;15269104;19;20015;-47
2023/04/02 09:07:27;;;;;;;2.08;1.40;;;;;;;2.18;100.00;98562.28;15269940;19;20042;-47
2023/04/02 09:12:57;;;;;;;1.95;1.08;;;;;;;2.36;100.00;98576.97;15273013;19;20078;-48
2023/04/02 09:18:23;;;;;;;1.10;1.00;;;;;;;2.39;100.00;98573.25;15272477;19;20014;-48
2023/04/02 09:23:54;;;;;;;1.55;1.00;;;;;;;2.45;100.00;98589.63;15231878;19;20589;-48
2023/04/02 09:29:39;;;;;;;1.48;0.80;;;;;;;2.47;100.00;98595.69;15267870;19;20014;-48
2023/04/02 09:35:19;;;;;;;1.00;0.80;;;;;;;2.43;100.00;98593.38;15266106;19;20014;-46
2023/04/02 09:40:50;;;;;;;2.13;0.80;;;;;;;2.67;100.00;98613.91;15266297;19;20015;-46
2023/04/02 09:46:26;;;;;;;1.02;0.90;;;;;;;2.63;100.00;98615.94;15263346;19;20018;-46
2023/04/02 09:52:10;;;;;;;1.27;0.95;;;;;;;2.65;100.00;98621.97;15259366;19;20021;-49
2023/04/02 09:57:37;;;;;;;1.50;0.90;;;;;;;2.68;100.00;98642.22;15267588;19;20018;-46
2023/04/02 10:03:08;;;;;;;1.27;0.90;;;;;;;2.69;100.00;98647.41;15263010;19;20022;-46
2023/04/02 10:08:35;;;;;;;0.80;0.80;;;;;;;2.69;100.00;98652.75;15265035;19;20425;-47
2023/04/02 10:14:04;;;;;;;1.35;0.80;;;;;;;2.61;100.00;98660.41;15261208;19;20026;-46
2023/04/02 10:19:38;;;;;;;1.90;0.90;;;;;;;2.72;100.00;98672.94;15265438;19;20024;-47
2023/04/02 10:25:03;;;;;;;1.52;0.90;;;;;;;2.64;100.00;98686.81;15259328;19;20370;-48
2023/04/02 10:30:32;;;;;;;2.13;0.98;;;;;;;2.63;100.00;98698.41;15264705;19;20021;-49
2023/04/02 10:36:08;;;;;;;2.47;0.93;;;;;;;2.59;100.00;98696.88;15262285;19;20035;-46
2023/04/02 10:41:39;;;;;;;1.20;0.80;;;;;;;2.58;100.00;98696.06;15267708;19;20014;-47
2023/04/02 10:47:15;;;;;;;1.20;0.88;;;;;;;2.59;100.00;98708.38;15280144;19;20011;-48
2023/04/02 10:52:47;;;;;;;1.92;1.00;;;;;;;2.65;100.00;98727.53;15291118;19;20021;-48
2023/04/02 10:58:25;;;;;;;1.60;0.90;;;;;;;2.66;100.00;98730.09;15292765;19;20025;-47
2023/04/02 11:03:55;;;;;;;2.15;1.00;;;;;;;2.60;100.00;98735.84;15288149;19;20014;-51
2023/04/02 11:09:27;;;;;;;1.35;1.00;;;;;;;2.64;100.00;98739.13;15286345;19;20022;-47
2023/04/02 11:14:51;;;;;;;1.63;1.20;;;;;;;2.71;100.00;98754.59;15287882;19;20011;-49
2023/04/02 11:20:44;;;;;;;2.40;1.13;;;;;;;2.77;100.00;98759.47;15290201;19;20022;-48
2023/04/02 11:26:51;;;;;;;1.38;1.00;;;;;;;2.99;100.00;98754.53;15283445;19;20017;-46
2023/04/02 11:32:30;;;;;;;2.92;1.10;;;;;;;3.00;100.00;98764.22;15286444;19;20250;-47
2023/04/02 11:37:56;;;;;;;1.40;1.00;;;;;;;3.06;100.00;98780.63;15286711;19;20019;-47
2023/04/02 11:43:51;;;;;;;1.60;0.90;;;;;;;2.98;100.00;98790.94;15284771;19;20371;-47
2023/04/02 11:50:03;;;;;;;3.28;1.15;;;;;;;3.07;100.00;98798.28;15290107;19;20350;-47
2023/04/02 11:55:32;;;;;;;;;;;;;;;2.99;100.00;98784.66;15274891;19;20829;-47
2023/04/02 12:01:28;;;;;;;2.38;1.13;;;;;;;3.01;100.00;98796.03;15259944;19;19919;-47
2023/04/02 12:07:33;;;;;;;1.83;1.00;;;;;;;3.08;100.00;98802.66;15265705;19;20017;-50
2023/04/02 12:12:58;;;;;;;1.92;1.10;;;;;;;3.17;100.00;98811.84;15268430;19;20066;-48
2023/04/02 12:18:25;;;;;;;2.35;1.23;;;;;;;3.26;100.00;98823.66;15273220;19;20089;-50
2023/04/02 12:24:02;;;;;;;2.58;1.13;;;;;;;3.21;100.00;98831.97;15267783;19;20354;-48
2023/04/02 12:29:28;;;;;;;3.42;1.30;;;;;;;3.20;100.00;98840.91;15272691;19;20481;-46
2023/04/02 12:34:53;;;;;;;3.15;1.40;;;;;;;3.08;100.00;98855.03;15271413;19;20022;-48
2023/04/02 12:40:22;;;;;;;2.20;1.10;;;;;;;3.18;100.00;98842.81;15270426;19;20018;-48
2023/04/02 12:45:48;;;;;;;2.25;1.20;;;;;;;3.21;100.00;98847.94;15268756;19;20022;-47
2023/04/02 12:51:13;;;;;;;2.35;1.00;;;;;;;3.23;100.00;98850.50;15269796;19;20424;-46
2023/04/02 12:56:40;;;;;;;2.75;1.17;;;;;;;3.37;100.00;98861.06;15269257;19;20022;-46
2023/04/02 13:02:20;;;;;;;1.65;1.00;;;;;;;3.49;100.00;98859.38;15262968;19;20420;-49
2023/04/02 13:07:46;;;;;;;2.80;1.00;;;;;;;3.69;100.00;98870.47;15262487;19;20023;-47
2023/04/02 13:13:18;;;;;;;1.25;0.80;;;;;;;3.63;100.00;98866.41;15264339;19;20518;-46
2023/04/02 13:18:45;;;;;;;2.45;1.10;;;;;;;3.70;100.00;98870.34;15271770;19;20105;-44
2023/04/02 13:24:25;;;;;;;1.85;1.13;;;;;;;3.73;100.00;98869.28;15261591;19;20092;-47
2023/04/02 13:29:53;;;;;;;3.80;1.00;;;;;;;3.97;100.00;98887.19;15263161;19;20821;-47
2023/04/02 13:35:19;;;;;;;2.65;1.10;;;;;;;4.12;100.00;98872.75;15259723;19;20761;-46
2023/04/02 13:40:44;;;;;;;3.03;1.08;;;;;;;4.14;100.00;98875.34;15265961;19;20035;-46
2023/04/02 13:46:15;;;;;;;3.55;1.20;;;;;;;4.25;100.00;98886.09;15264228;19;20006;-49
2023/04/02 13:51:43;;;;;;;2.07;1.00;;;;;;;4.13;100.00;98884.31;15257079;19;20385;-52
2023/04/02 13:57:09;;;;;;;3.38;1.10;;;;;;;4.09;100.00;98888.13;15263535;19;20021;-49
2023/04/02 14:02:42;;;;;;;3.72;1.15;;;;;;;4.11;100.00;98899.53;15259868;19;20022;-49
2023/04/02 14:08:17;;;;;;;1.35;1.00;;;;;;;4.11;100.00;98912.88;15252946;19;20026;-48
2023/04/02 14:14:01;;;;;;;2.78;1.00;;;;;;;4.16;100.00;98924.09;15258690;19;20749;-46
2023/04/02 14:19:42;;;;;;;2.95;1.10;;;;;;;4.19;100.00;98923.84;15259222;19;20250;-48
2023/04/02 14:25:23;;;;;;;5.33;1.17;;;;;;;4.31;100.00;98922.97;15260618;19;20488;-47
2023/04/02 14:30:55;;;;;;;2.23;1.10;;;;;;;4.29;100.00;98921.41;15262210;19;20425;-46
2023/04/02 14:36:28;;;;;;;1.02;0.90;;;;;;;4.40;100.00;98926.81;15262210;19;20090;-48
2023/04/02 14:41:59;;;;;;;2.92;1.00;;;;;;;4.46;100.00;98930.88;15256394;19;20025;-48
2023/04/02 14:47:31;;;;;;;1.65;0.80;;;;;;;4.53;100.00;98933.94;15257329;19;20397;-48
2023/04/02 14:53:03;;;;;;;2.42;0.93;;;;;;;4.57;100.00;98927.44;15260461;19;20021;-50
2023/04/02 14:58:33;;;;;;;1.38;0.90;;;;;;;4.72;100.00;98936.16;15260024;19;20025;-46
2023/04/02 15:04:02;;;;;;;2.58;1.10;;;;;;;4.72;100.00;98941.47;15256392;19;20026;-49
2023/04/02 15:09:37;;;;;;;2.35;1.00;;;;;;;4.68;100.00;98946.19;15257181;19;20093;-47
2023/04/02 15:15:10;;;;;;;2.30;1.00;;;;;;;4.62;100.00;98952.81;15254580;19;20539;-51
2023/04/02 15:20:53;;;;;;;4.20;1.02;;;;;;;4.58;100.00;98956.66;15258948;19;20003;-49
2023/04/02 15:26:30;;;;;;;2.80;0.90;;;;;;;4.67;100.00;98963.16;15259219;19;20010;-50
2023/04/02 15:31:56;;;;;;;2.75;1.10;;;;;;;4.74;100.00;98969.75;15275261;19;20348;-47
2023/04/02 15:37:31;;;;;;;3.03;1.02;;;;;;;4.86;100.00;98965.38;15275582;19;20018;-48
2023/04/02 15:43:07;;;;;;;4.75;1.02;;;;;;;4.90;100.00;98966.00;15268228;19;20499;-50
2023/04/02 15:48:54;;;;;;;2.33;1.00;;;;;;;4.86;100.00;98973.38;15268687;19;20391;-47
2023/04/02 15:54:32;;;;;;;2.10;1.00;;;;;;;4.92;100.00;98975.59;15273727;19;20011;-52
2023/04/02 16:00:16;;;;;;;1.40;0.88;;;;;;;4.94;100.00;98980.81;15270870;19;20405;-51
2023/04/02 16:05:50;;;;;;;2.55;0.90;;;;;;;5.02;100.00;98980.25;15268396;19;20039;-47
2023/04/02 16:11:16;;;;;;;1.40;0.90;;;;;;;5.02;100.00;98985.59;15270561;19;20014;-47
2023/04/02 16:16:43;;;;;;;1.88;1.00;;;;;;;5.08;100.00;98995.84;15267279;19;20006;-49
2023/04/02 16:22:16;;;;;;;1.80;0.82;;;;;;;5.07;100.00;98994.13;15267322;19;20016;-47
2023/04/02 16:27:45;;;;;;;1.45;0.90;;;;;;;5.13;100.00;98996.34;15265918;19;20010;-51
2023/04/02 16:33:32;;;;;;;1.73;0.90;;;;;;;5.04;100.00;99005.03;15268749;19;20033;-48
2023/04/02 16:39:06;;;;;;;2.65;1.00;;;;;;;5.03;100.00;99014.88;15269413;19;20078;-48
2023/04/02 16:44:41;;;;;;;2.00;1.00;;;;;;;4.97;100.00;99030.47;15268664;19;20391;-47
2023/04/02 16:50:14;;;;;;;2.70;1.13;;;;;;;4.92;100.00;99034.31;15263169;19;20010;-49
2023/04/02 16:55:51;;;;;;;2.72;1.00;;;;;;;4.89;100.00;99039.88;15263477;19;20784;-48
2023/04/02 17:01:23;;;;;;;2.20;1.10;;;;;;;4.85;100.00;99043.75;15269362;19;20038;-49
2023/04/02 17:07:01;;;;;;;1.60;0.90;;;;;;;4.68;100.00;99046.75;15265332;19;20047;-48
2023/04/02 17:12:30;;;;;;;1.95;0.90;;;;;;;4.66;100.00;99054.88;15262207;19;20018;-49
2023/04/02 17:17:58;;;;;;;1.13;0.90;;;;;;;4.64;100.00;99059.47;15266016;19;20082;-50
2023/04/02 17:23:28;;;;;;;2.10;0.90;;;;;;;4.55;100.00;99068.97;15260578;19;20021;-49
2023/04/02 17:29:05;;;;;;;1.33;0.88;;;;;;;4.48;100.00;99078.38;15264591;19;20037;-52
2023/04/02 17:34:31;;;;;;;1.92;1.00;;;;;;;4.43;100.00;99088.50;15268683;19;20090;-49
2023/04/02 17:40:06;;;;;;;2.80;1.00;;;;;;;4.32;100.00;99098.09;15267800;19;20961;-48
2023/04/02 17:45:39;;;;;;;2.20;1.00;;;;;;;4.24;100.00;99104.88;15267073;19;20028;-48
2023/04/02 17:51:17;;;;;;;2.35;1.05;;;;;;;4.18;100.00;99108.81;15265545;19;20082;-50
2023/04/02 17:57:01;;;;;;;1.63;1.00;;;;;;;4.09;100.00;99117.47;15263341;19;20014;-50
2023/04/02 18:02:45;;;;;;;1.65;1.00;;;;;;;4.06;100.00;99120.34;15261037;19;20006;-46
2023/04/02 18:08:21;;;;;;;1.88;1.00;;;;;;;3.99;100.00;99131.41;15263308;19;20715;-49
2023/04/02 18:13:50;;;;;;;2.05;1.00;;;;;;;3.99;100.00;99136.75;15255403;19;20010;-47
2023/04/02 18:19:24;;;;;;;1.80;1.00;;;;;;;3.92;100.00;99146.13;15262494;19;20007;-48
2023/04/02 18:25:13;;;;;;;2.00;1.17;;;;;;;3.88;100.00;99146.41;15255887;19;20574;-48
2023/04/02 18:30:49;;;;;;;1.60;1.10;;;;;;;3.84;100.00;99159.94;15258073;19;20486;-47
2023/04/02 18:36:22;;;;;;;2.10;1.10;;;;;;;3.85;100.00;99163.44;14747911;19;10002615;-50
2023/04/02 18:41:56;;;;;;;1.67;1.13;;;;;;;3.78;100.00;99162.16;15256731;19;20011;-49
2023/04/02 18:47:31;;;;;;;3.25;2.10;;;;;;;3.79;100.00;99177.19;15260131;19;20483;-50
2023/04/02 18:52:56;;;;;;;2.22;1.25;;;;;;;3.79;100.00;99193.19;15257603;19;20033;-51
2023/04/02 18:58:27;;;;;;;1.98;1.20;;;;;;;3.80;100.00;99197.56;15258980;19;20845;-50
2023/04/02 19:04:04;;;;;;;3.03;1.30;;;;;;;3.76;100.00;99201.38;15259954;19;20444;-51
2023/04/02 19:09:33;;;;;;;2.60;1.52;;;;;;;3.74;100.00;99206.81;15270709;19;20467;-48
2023/04/02 19:15:00;;;;;;;2.42;1.70;;;;;;;3.72;100.00;99210.50;15279082;19;20044;-46
2023/04/02 19:20:41;;;;;;;4.25;1.50;;;;;;;3.68;100.00;99212.50;15281006;19;20015;-46
2023/04/02 19:26:10;;;;;;;3.50;1.73;;;;;;;3.70;100.00;99227.44;15283369;19;20034;-44
2023/04/02 19:31:47;;;;;;;2.45;1.20;;;;;;;3.69;100.00;99225.75;15273968;19;20038;-46
2023/04/02 19:37:21;;;;;;;2.70;1.58;;;;;;;3.77;100.00;99232.41;15280827;19;20460;-46
2023/04/02 19:42:52;;;;;;;2.35;1.30;;;;;;;3.80;100.00;99243.72;15279035;19;20371;-45
2023/04/02 19:48:20;;;;;;;3.47;1.77;;;;;;;3.79;100.00;99238.50;15289690;19;20014;-44
2023/04/02 19:53:48;;;;;;;1.60;1.25;;;;;;;3.76;100.00;99242.22;15277112;19;20015;-45
2023/04/02 19:59:13;;;;;;;3.33;1.17;;;;;;;3.76;100.00;99249.34;15284131;19;20028;-44
2023/04/02 20:04:38;;;;;;;3.88;1.30;;;;;;;3.79;100.00;99251.81;15275868;19;20033;-46
2023/04/02 20:10:05;;;;;;;2.53;1.10;;;;;;;3.79;100.00;99249.16;15275615;19;20047;-45
2023/04/02 20:15:30;;;;;;;3.45;1.08;;;;;;;3.83;100.00;99253.31;15277787;19;20019;-47
2023/04/02 20:21:01;;;;;;;3.13;1.20;;;;;;;3.89;100.00;99268.94;15278148;19;20019;-44
2023/04/02 20:26:28;;;;;;;2.47;1.20;;;;;;;3.86;100.00;99269.13;15280739;19;20033;-44
2023/04/02 20:31:54;;;;;;;2.08;1.10;;;;;;;3.88;100.00;99280.56;15277169;19;20295;-42
2023/04/02 20:37:18;;;;;;;2.45;1.13;;;;;;;3.90;100.00;99285.78;15275292;19;20018;-45
2023/04/02 20:42:46;;;;;;;1.95;1.13;;;;;;;3.89;100.00;99295.59;15252295;19;20092;-46
2023/04/02 20:48:10;;;;;;;2.60;1.20;;;;;;;3.92;100.00;99313.19;15277738;19;20010;-46
2023/04/02 20:53:37;;;;;;;1.75;1.15;;;;;;;3.95;100.00;99315.69;15276047;19;20011;-45
2023/04/02 20:59:05;;;;;;;3.33;1.30;;;;;;;3.96;100.00;99323.56;15273066;19;20482;-45
2023/04/02 21:04:30;;;;;;;3.53;1.20;;;;;;;3.97;100.00;99324.44;15277773;19;20530;-45
2023/04/02 21:09:55;;;;;;;2.58;1.23;;;;;;;4.04;100.00;99325.75;15269996;19;20513;-44
2023/04/02 21:15:23;;;;;;;2.80;1.10;;;;;;;3.95;100.00;99327.19;15275434;19;20018;-45
2023/04/02 21:21:04;;;;;;;3.13;1.02;;;;;;;3.93;100.00;99329.13;15277960;19;20024;-81
2023/04/02 21:26:31;;;;;;;2.60;0.93;;;;;;;4.00;100.00;99335.75;15298950;19;20011;-81
2023/04/02 21:32:01;;;;;;;4.43;1.10;;;;;;;3.91;100.00;99341.69;15350992;19;20014;-80
2023/04/02 21:37:31;;;;;;;3.05;1.15;;;;;;;3.83;100.00;99347.50;15348046;19;20029;-79
2023/04/02 21:42:57;;;;;;;4.90;1.13;;;;;;;3.69;100.00;99348.34;15344788;19;20023;-80
2023/04/02 21:48:25;;;;;;;2.17;0.93;;;;;;;3.67;100.00;99349.38;15340924;19;20480;-80
2023/04/02 21:53:52;;;;;;;3.53;1.20;;;;;;;3.59;100.00;99357.00;15299299;19;20071;-81
2023/04/02 21:59:20;;;;;;;2.42;1.00;;;;;;;3.48;100.00;99349.63;15296842;19;20035;-81
2023/04/02 22:04:47;;;;;;;2.00;0.80;;;;;;;3.47;100.00;99353.28;15297184;19;20042;-80
2023/04/02 22:10:16;;;;;;;2.53;1.00;;;;;;;3.35;100.00;99363.69;15290547;19;20380;-81
2023/04/02 22:15:41;;;;;;;5.43;1.10;;;;;;;3.28;100.00;99370.34;15292639;19;20074;-81
2023/04/02 22:21:10;;;;;;;3.33;1.20;;;;;;;3.13;100.00;99376.59;15288345;19;20081;-82
2023/04/02 22:26:35;;;;;;;2.13;0.90;;;;;;;3.08;100.00;99380.41;15298783;19;20021;-79
2023/04/02 22:32:00;;;;;;;3.47;1.08;;;;;;;3.01;100.00;99373.69;15325855;19;20021;-79
2023/04/02 22:37:27;;;;;;;1.92;0.90;;;;;;;2.85;100.00;99372.88;15316287;19;20042;-80
2023/04/02 22:42:52;;;;;;;2.30;0.98;;;;;;;2.82;100.00;99381.03;15293952;19;20086;-80
2023/04/02 22:48:16;;;;;;;4.32;1.25;;;;;;;2.84;100.00;99387.13;15291573;19;20029;-81
2023/04/02 22:53:45;;;;;;;3.33;1.00;;;;;;;2.72;100.00;99394.88;15294055;19;20019;-81
2023/04/02 22:59:10;;;;;;;3.33;1.30;;;;;;;2.71;100.00;99398.47;15293670;19;20035;-81
2023/04/02 23:04:34;;;;;;;5.18;1.00;;;;;;;2.70;100.00;99401.25;15307503;19;20035;-80
2023/04/02 23:10:02;;;;;;;5.03;1.20;;;;;;;2.63;100.00;99395.41;15314797;19;20364;-81
2023/04/02 23:15:27;;;;;;;2.80;1.10;;;;;;;2.51;100.00;99401.41;15284021;19;20024;-80
2023/04/02 23:20:52;;;;;;;3.10;1.00;;;;;;;2.46;100.00;99414.97;15286037;19;20026;-80
2023/04/02 23:26:22;;;;;;;3.00;1.27;;;;;;;2.45;100.00;99414.09;15291391;19;20368;-82
2023/04/02 23:31:47;;;;;;;2.58;1.15;;;;;;;2.38;100.00;99423.38;15289254;19;20093;-80
2023/04/02 23:37:12;;;;;;;3.38;1.13;;;;;;;2.39;100.00;99422.44;15290806;19;20018;-81
2023/04/02 23:42:39;;;;;;;3.47;1.30;;;;;;;2.25;100.00;99431.16;15296166;19;20022;-79
2023/04/02 23:48:04;;;;;;;3.65;1.20;;;;;;;2.20;100.00;99429.69;15296367;19;20014;-80
2023/04/02 23:53:28;;;;;;;4.13;1.08;;;;;;;2.28;100.00;99433.66;15310644;19;20031;-79
2023/04/02 23:58:56;;;;;;;4.25;1.30;;;;;;;2.28;100.00;99428.31;15308686;19;20166;-81
